createdAt,value
2018-05-16T00:00:25.978Z,2.40
2018-05-16T00:02:56.515Z,2.50
2018-05-16T00:05:27.293Z,2.20
2018-05-16T00:07:58.435Z,2.23
2018-05-16T00:10:29.013Z,2.40
2018-05-16T00:12:59.354Z,1.93
2018-05-16T00:15:29.541Z,2.20
2018-05-16T00:17:59.760Z,1.93
2018-05-16T00:20:30.123Z,2.20
2018-05-16T00:23:00.259Z,2.17
2018-05-16T00:25:30.690Z,2.10
2018-05-16T00:28:00.839Z,2.00
2018-05-16T00:30:31.811Z,2.23
2018-05-16T00:33:01.891Z,2.03
2018-05-16T00:35:32.091Z,2.40
2018-05-16T00:38:03.168Z,2.17
2018-05-16T00:40:34.490Z,2.13
2018-05-16T00:43:06.261Z,2.43
2018-05-16T00:45:37.425Z,2.10
2018-05-16T00:48:08.003Z,2.10
2018-05-16T00:50:38.447Z,2.30
2018-05-16T00:53:08.733Z,2.23
2018-05-16T00:55:38.861Z,2.10
2018-05-16T00:58:09.091Z,2.10
2018-05-16T01:00:39.305Z,2.17
2018-05-16T01:03:09.601Z,2.13
2018-05-16T01:05:39.912Z,2.30
2018-05-16T01:08:10.190Z,2.17
2018-05-16T01:10:40.090Z,2.13
2018-05-16T01:13:10.411Z,2.13
2018-05-16T01:15:40.764Z,2.67
2018-05-16T01:18:11.373Z,2.17
2018-05-16T01:20:41.586Z,2.30
2018-05-16T01:23:11.721Z,2.20
2018-05-16T01:25:41.939Z,1.90
2018-05-16T01:28:12.325Z,2.30
2018-05-16T01:30:43.255Z,2.00
2018-05-16T01:33:14.269Z,2.30
2018-05-16T01:35:44.406Z,2.70
2018-05-16T01:38:15.593Z,2.30
2018-05-16T01:40:46.249Z,2.80
2018-05-16T01:43:16.222Z,2.40
2018-05-16T01:45:53.412Z,2.40
2018-05-16T01:48:23.165Z,2.67
2018-05-16T01:50:53.835Z,2.60
2018-05-16T01:53:23.595Z,2.63
2018-05-16T01:55:53.323Z,2.70
2018-05-16T01:58:23.175Z,2.77
2018-05-16T02:00:54.963Z,3.23
2018-05-16T02:03:25.304Z,2.90
2018-05-16T02:05:55.843Z,2.80
2018-05-16T02:08:27.010Z,2.97
2018-05-16T02:10:57.623Z,3.27
2018-05-16T02:13:28.019Z,3.27
2018-05-16T02:15:59.135Z,3.10
2018-05-16T02:18:29.927Z,2.70
2018-05-16T02:21:00.385Z,2.87
2018-05-16T02:23:30.825Z,3.00
2018-05-16T02:26:15.573Z,3.50
2018-05-16T02:28:46.565Z,3.00
2018-05-16T02:31:16.940Z,3.73
2018-05-16T02:33:48.156Z,3.43
2018-05-16T02:36:18.796Z,3.70
2018-05-16T02:38:49.430Z,2.90
2018-05-16T02:41:19.628Z,3.00
2018-05-16T02:43:50.112Z,2.53
2018-05-16T02:46:21.371Z,3.23
2018-05-16T02:48:51.961Z,3.00
2018-05-16T02:51:22.091Z,2.77
2018-05-16T02:53:53.537Z,2.83
2018-05-16T02:56:24.849Z,2.77
2018-05-16T02:58:55.520Z,2.90
2018-05-16T03:01:26.220Z,2.67
2018-05-16T03:03:56.743Z,2.83
2018-05-16T03:06:28.626Z,2.90
2018-05-16T03:09:00.217Z,3.00
2018-05-16T03:11:30.831Z,2.80
2018-05-16T03:14:01.655Z,2.90
2018-05-16T03:16:32.203Z,2.83
2018-05-16T03:19:03.003Z,2.70
2018-05-16T03:21:33.386Z,2.53
2018-05-16T03:24:04.817Z,2.70
2018-05-16T03:26:34.948Z,2.43
2018-05-16T03:29:05.338Z,2.70
2018-05-16T03:31:36.058Z,2.47
2018-05-16T03:34:07.368Z,2.40
2018-05-16T03:36:40.748Z,2.80
2018-05-16T03:39:12.073Z,2.77
2018-05-16T03:41:42.894Z,2.63
2018-05-16T03:44:13.876Z,2.70
2018-05-16T03:46:45.476Z,2.60
2018-05-16T03:49:15.971Z,2.20
2018-05-16T03:51:48.954Z,2.70
2018-05-16T03:54:20.756Z,2.40
2018-05-16T03:56:51.548Z,2.70
2018-05-16T03:59:33.552Z,2.37
2018-05-16T04:02:16.096Z,2.50
2018-05-16T04:04:46.635Z,2.60
2018-05-16T04:07:16.777Z,2.47
2018-05-16T04:09:46.987Z,2.40
2018-05-16T04:12:17.824Z,2.27
2018-05-16T04:14:47.674Z,2.47
2018-05-16T04:17:18.202Z,2.33
2018-05-16T04:19:48.395Z,2.60
2018-05-16T04:22:20.565Z,2.30
2018-05-16T04:24:50.970Z,2.53
2018-05-16T04:27:20.697Z,2.33
2018-05-16T04:29:50.806Z,2.23
2018-05-16T04:32:20.891Z,2.13
2018-05-16T04:34:51.458Z,2.50
2018-05-16T04:37:21.738Z,2.07
2018-05-16T04:39:51.548Z,2.20
2018-05-16T04:42:22.941Z,2.03
2018-05-16T04:44:54.012Z,2.17
2018-05-16T04:47:23.804Z,1.87
2018-05-16T04:49:53.844Z,2.00
2018-05-16T04:52:24.255Z,1.90
2018-05-16T04:54:55.714Z,2.13
2018-05-16T04:57:25.795Z,1.90
2018-05-16T04:59:56.881Z,1.93
2018-05-16T05:02:27.731Z,1.90
2018-05-16T05:04:57.915Z,1.93
2018-05-16T05:07:28.241Z,2.27
2018-05-16T05:09:58.477Z,1.60
2018-05-16T05:12:28.792Z,2.23
2018-05-16T05:14:59.081Z,1.73
2018-05-16T05:17:29.784Z,1.80
2018-05-16T05:20:00.293Z,1.83
2018-05-16T05:22:30.541Z,2.10
2018-05-16T05:25:01.529Z,1.90
2018-05-16T05:27:31.799Z,2.07
2018-05-16T05:30:02.321Z,2.00
2018-05-16T05:32:32.699Z,1.67
2018-05-16T05:35:03.259Z,2.00
2018-05-16T05:37:33.393Z,2.00
2018-05-16T05:40:04.031Z,1.80
2018-05-16T05:42:34.135Z,1.80
2018-05-16T05:45:04.474Z,2.40
2018-05-16T05:47:34.793Z,1.87
2018-05-16T05:50:05.389Z,2.30
2018-05-16T05:52:36.127Z,2.40
2018-05-16T05:55:06.196Z,1.90
2018-05-16T05:57:36.466Z,2.30
2018-05-16T06:00:06.846Z,2.10
2018-05-16T06:02:37.250Z,2.30
2018-05-16T06:05:07.372Z,2.30
2018-05-16T06:07:37.804Z,2.00
2018-05-16T06:10:08.358Z,1.90
2018-05-16T06:12:39.625Z,1.80
2018-05-16T06:15:10.119Z,1.70
2018-05-16T06:17:40.482Z,2.27
2018-05-16T06:20:10.641Z,2.13
2018-05-16T06:22:40.959Z,1.90
2018-05-16T06:25:11.189Z,2.07
2018-05-16T06:27:41.424Z,2.00
2018-05-16T06:30:11.658Z,2.17
2018-05-16T06:32:42.891Z,2.00
2018-05-16T06:35:13.254Z,2.27
2018-05-16T06:37:43.433Z,2.17
2018-05-16T06:40:13.959Z,2.17
2018-05-16T06:42:44.151Z,1.93
2018-05-16T06:45:15.419Z,2.10
2018-05-16T06:47:46.651Z,2.50
2018-05-16T06:50:16.912Z,2.00
2018-05-16T06:52:47.213Z,2.23
2018-05-16T06:55:17.603Z,2.40
2018-05-16T06:57:48.075Z,2.40
2018-05-16T07:00:18.516Z,2.00
2018-05-16T07:02:48.785Z,2.00
2018-05-16T07:05:18.888Z,1.93
2018-05-16T07:07:49.174Z,2.20
2018-05-16T07:10:19.511Z,2.50
2018-05-16T07:12:50.485Z,2.00
2018-05-16T07:15:21.570Z,2.47
2018-05-16T07:17:52.748Z,2.10
2018-05-16T07:20:23.549Z,2.10
2018-05-16T07:22:55.253Z,2.57
2018-05-16T07:25:26.386Z,1.70
2018-05-16T07:27:56.913Z,2.03
2018-05-16T07:30:28.056Z,1.90
2018-05-16T07:32:59.408Z,2.40
2018-05-16T07:35:29.500Z,2.33
2018-05-16T07:37:59.647Z,2.30
2018-05-16T07:40:30.132Z,2.60
2018-05-16T07:43:00.550Z,2.70
2018-05-16T07:45:30.899Z,2.67
2018-05-16T07:48:01.022Z,2.80
2018-05-16T07:50:31.132Z,2.60
2018-05-16T07:53:01.432Z,2.20
2018-05-16T07:55:31.698Z,2.37
2018-05-16T07:58:01.912Z,2.53
2018-05-16T08:00:32.140Z,3.00
2018-05-16T08:03:02.649Z,3.20
2018-05-16T08:05:32.778Z,2.47
2018-05-16T08:08:02.994Z,2.50
2018-05-16T08:10:33.338Z,2.60
2018-05-16T08:13:03.724Z,2.50
2018-05-16T08:15:33.956Z,2.50
2018-05-16T08:18:04.271Z,2.77
2018-05-16T08:20:34.218Z,2.67
2018-05-16T08:23:04.348Z,2.80
2018-05-16T08:25:34.646Z,2.70
2018-05-16T08:28:04.976Z,2.70
2018-05-16T08:30:35.474Z,3.47
2018-05-16T08:33:05.641Z,3.10
2018-05-16T08:35:35.747Z,2.93
2018-05-16T08:38:06.184Z,2.93
2018-05-16T08:40:37.384Z,3.03
2018-05-16T08:43:07.588Z,3.07
2018-05-16T08:45:38.256Z,2.90
2018-05-16T08:48:08.981Z,3.50
2018-05-16T08:50:39.276Z,3.07
2018-05-16T08:53:09.782Z,3.20
2018-05-16T08:55:39.881Z,2.80
2018-05-16T08:58:09.906Z,3.03
2018-05-16T09:00:40.211Z,2.93
2018-05-16T09:03:10.732Z,2.67
2018-05-16T09:05:40.781Z,2.57
2018-05-16T09:08:10.936Z,2.50
2018-05-16T09:10:41.957Z,2.47
2018-05-16T09:13:17.534Z,2.73
2018-05-16T09:15:51.190Z,2.80
2018-05-16T09:18:37.292Z,2.73
2018-05-16T09:21:11.947Z,2.87
2018-05-16T09:23:48.506Z,2.90
2018-05-16T09:26:20.942Z,2.33
2018-05-16T09:29:04.900Z,2.67
2018-05-16T09:31:37.786Z,2.87
2018-05-16T09:34:10.597Z,2.40
2018-05-16T09:36:42.608Z,2.33
2018-05-16T09:39:16.853Z,2.47
2018-05-16T09:41:52.440Z,2.57
2018-05-16T09:44:24.165Z,2.60
2018-05-16T09:47:03.010Z,2.20
2018-05-16T09:49:33.377Z,2.20
2018-05-16T09:52:04.500Z,2.10
2018-05-16T09:54:38.828Z,2.00
2018-05-16T09:57:12.406Z,2.00
2018-05-16T09:59:50.765Z,1.80
2018-05-16T10:02:28.003Z,1.70
2018-05-16T10:04:59.282Z,2.13
2018-05-16T10:07:31.276Z,1.90
2018-05-16T10:10:02.378Z,1.80
2018-05-16T10:12:49.262Z,1.60
2018-05-16T10:15:24.111Z,1.67
2018-05-16T10:18:03.418Z,1.60
2018-05-16T10:20:33.691Z,1.40
2018-05-16T10:23:04.433Z,1.40
2018-05-16T10:25:41.189Z,1.50
2018-05-16T10:28:11.903Z,1.47
2018-05-16T10:30:52.463Z,1.53
2018-05-16T10:33:27.843Z,1.33
2018-05-16T10:35:59.734Z,1.30
2018-05-16T10:38:30.138Z,1.50
2018-05-16T10:41:12.295Z,1.30
2018-05-16T10:43:43.924Z,1.40
2018-05-16T10:46:24.010Z,1.20
2018-05-16T10:48:56.883Z,1.27
2018-05-16T10:51:37.146Z,1.00
2018-05-16T10:54:12.554Z,1.43
2018-05-16T10:56:44.500Z,1.37
2018-05-16T10:59:19.383Z,1.30
2018-05-16T11:01:58.162Z,1.10
2018-05-16T11:04:47.002Z,1.30
2018-05-16T11:07:29.851Z,0.90
2018-05-16T11:10:04.918Z,1.03
2018-05-16T11:12:34.913Z,1.20
2018-05-16T11:15:04.931Z,1.20
2018-05-16T11:17:35.427Z,1.70
2018-05-16T11:20:05.827Z,1.10
2018-05-16T11:22:36.761Z,1.10
2018-05-16T11:25:07.900Z,1.10
2018-05-16T11:27:38.077Z,1.07
2018-05-16T11:30:08.316Z,1.10
2018-05-16T11:32:38.410Z,1.00
2018-05-16T11:35:08.571Z,0.90
2018-05-16T11:37:38.719Z,0.90
2018-05-16T11:40:08.893Z,1.03
2018-05-16T11:42:39.236Z,1.00
2018-05-16T11:45:09.634Z,0.80
2018-05-16T11:47:40.039Z,0.93
2018-05-16T11:50:10.168Z,0.80
2018-05-16T11:52:40.234Z,0.97
2018-05-16T11:55:11.251Z,0.87
2018-05-16T11:57:41.563Z,0.73
2018-05-16T12:00:11.618Z,1.07
2018-05-16T12:02:42.743Z,0.80
2018-05-16T12:05:14.634Z,0.80
2018-05-16T12:07:44.879Z,0.90
2018-05-16T12:10:15.032Z,0.77
2018-05-16T12:12:45.279Z,1.00
2018-05-16T12:15:15.701Z,0.60
2018-05-16T12:17:45.993Z,0.70
2018-05-16T12:20:15.894Z,0.70
2018-05-16T12:22:46.062Z,0.60
2018-05-16T12:25:16.441Z,0.40
2018-05-16T12:27:47.091Z,0.60
2018-05-16T12:30:17.500Z,0.60
2018-05-16T12:32:48.211Z,0.60
2018-05-16T12:35:19.340Z,0.80
2018-05-16T12:37:50.328Z,0.60
2018-05-16T12:40:20.621Z,0.57
2018-05-16T12:43:02.964Z,0.63
2018-05-16T12:45:34.341Z,0.67
2018-05-16T12:48:04.531Z,0.43
2018-05-16T12:50:34.970Z,0.60
2018-05-16T12:53:06.235Z,0.53
2018-05-16T12:55:36.569Z,0.70
2018-05-16T12:58:06.672Z,0.60
2018-05-16T13:00:37.512Z,0.70
2018-05-16T13:03:07.641Z,0.67
2018-05-16T13:05:38.146Z,0.70
2018-05-16T13:08:09.119Z,0.50
2018-05-16T13:10:39.412Z,0.50
2018-05-16T13:13:09.477Z,0.70
2018-05-16T13:15:40.468Z,0.60
2018-05-16T13:18:10.864Z,0.67
2018-05-16T13:20:41.317Z,0.50
2018-05-16T13:23:12.559Z,0.63
2018-05-16T13:25:42.734Z,0.50
2018-05-16T13:28:14.181Z,0.40
2018-05-16T13:31:20.066Z,0.37
2018-05-16T13:33:50.335Z,0.53
2018-05-16T13:36:20.633Z,0.50
2018-05-16T13:38:56.716Z,0.43
2018-05-16T13:41:27.127Z,0.40
2018-05-16T13:44:02.581Z,0.40
2018-05-16T13:46:51.073Z,0.47
2018-05-16T13:49:21.971Z,0.50
2018-05-16T13:51:54.178Z,0.60
2018-05-16T13:54:38.687Z,0.40
2018-05-16T13:57:09.044Z,0.50
2018-05-16T13:59:39.571Z,0.57
2018-05-16T14:02:09.974Z,0.50
2018-05-16T14:04:40.188Z,0.57
2018-05-16T14:07:10.235Z,0.40
2018-05-16T14:09:40.713Z,0.50
2018-05-16T14:12:11.172Z,0.47
2018-05-16T14:14:41.270Z,0.57
2018-05-16T14:17:11.530Z,0.60
2018-05-16T14:19:41.854Z,0.60
2018-05-16T14:22:12.021Z,0.40
2018-05-16T14:24:42.143Z,0.70
2018-05-16T14:27:13.436Z,0.70
2018-05-16T14:29:43.972Z,0.60
2018-05-16T14:32:14.447Z,0.40
2018-05-16T14:34:45.057Z,0.57
2018-05-16T14:37:15.644Z,0.70
2018-05-16T14:39:46.018Z,0.70
2018-05-16T14:42:16.334Z,0.80
2018-05-16T14:44:46.812Z,0.77
2018-05-16T14:47:17.306Z,0.80
2018-05-16T14:49:48.437Z,0.90
2018-05-16T14:52:19.925Z,0.80
2018-05-16T14:54:50.464Z,0.80
2018-05-16T14:57:20.980Z,0.80
2018-05-16T14:59:51.396Z,0.73
2018-05-16T15:02:23.454Z,0.70
2018-05-16T15:04:55.239Z,0.67
2018-05-16T15:07:26.831Z,0.73
2018-05-16T15:09:58.125Z,0.70
2018-05-16T15:12:27.987Z,0.67
2018-05-16T15:14:57.847Z,0.80
2018-05-16T15:17:28.354Z,0.80
2018-05-16T15:19:58.294Z,0.67
2018-05-16T15:22:28.125Z,0.80
2018-05-16T15:24:58.876Z,0.70
2018-05-16T15:27:29.483Z,0.60
2018-05-16T15:29:59.998Z,0.80
2018-05-16T15:32:31.537Z,0.83
2018-05-16T15:35:03.408Z,0.60
2018-05-16T15:37:34.709Z,0.70
2018-05-16T15:40:06.162Z,0.60
2018-05-16T15:42:37.689Z,0.60
2018-05-16T15:45:09.651Z,0.50
2018-05-16T15:47:40.150Z,0.40
2018-05-16T15:50:10.465Z,0.40
2018-05-16T15:52:40.882Z,0.60
2018-05-16T15:55:11.381Z,0.50
2018-05-16T15:57:42.279Z,0.70
2018-05-16T16:00:13.360Z,0.70
2018-05-16T16:02:44.000Z,0.67
2018-05-16T16:05:15.378Z,0.50
2018-05-16T16:07:45.716Z,0.53
2018-05-16T16:10:16.638Z,0.50
2018-05-16T16:12:47.494Z,0.50
2018-05-16T16:15:19.228Z,0.70
2018-05-16T16:17:49.698Z,0.50
2018-05-16T16:20:20.379Z,0.50
2018-05-16T16:22:51.424Z,0.60
2018-05-16T16:25:22.016Z,0.70
2018-05-16T16:27:52.341Z,0.50
2018-05-16T16:30:22.931Z,0.40
2018-05-16T16:32:53.360Z,0.67
2018-05-16T16:35:23.622Z,0.80
2018-05-16T16:37:53.682Z,0.80
2018-05-16T16:40:23.965Z,0.60
2018-05-16T16:42:54.340Z,0.80
2018-05-16T16:45:24.193Z,0.63
2018-05-16T16:47:55.625Z,0.67
2018-05-16T16:50:26.288Z,0.60
2018-05-16T16:52:57.072Z,0.70
2018-05-16T16:55:27.330Z,0.60
2018-05-16T16:57:57.882Z,0.60
2018-05-16T17:00:28.081Z,0.70
2018-05-16T17:02:59.163Z,0.70
2018-05-16T17:05:29.786Z,0.60
2018-05-16T17:07:59.567Z,0.70
2018-05-16T17:10:30.122Z,0.53
2018-05-16T17:12:59.944Z,0.60
2018-05-16T17:15:29.668Z,0.93
2018-05-16T17:17:59.381Z,0.60
2018-05-16T17:20:29.168Z,0.50
2018-05-16T17:22:59.761Z,0.70
2018-05-16T17:25:29.485Z,0.97
2018-05-16T17:28:00.115Z,0.70
2018-05-16T17:30:31.513Z,1.10
2018-05-16T17:33:02.402Z,1.20
2018-05-16T17:35:33.013Z,1.30
2018-05-16T17:38:02.788Z,1.03
2018-05-16T17:40:32.547Z,1.03
2018-05-16T17:43:03.850Z,0.90
2018-05-16T17:45:34.474Z,1.03
2018-05-16T17:48:04.228Z,0.90
2018-05-16T17:50:34.012Z,0.90
2018-05-16T17:53:04.607Z,1.13
2018-05-16T17:55:35.168Z,1.20
2018-05-16T17:58:04.964Z,1.27
2018-05-16T18:00:34.859Z,1.33
2018-05-16T18:03:05.468Z,1.40
2018-05-16T18:05:35.171Z,1.40
2018-05-16T18:08:04.918Z,1.50
2018-05-16T18:10:35.763Z,1.23
2018-05-16T18:16:27.884Z,1.30
2018-05-16T18:18:59.402Z,1.50
2018-05-16T18:21:29.643Z,1.50
2018-05-16T18:24:00.546Z,1.00
2018-05-16T18:26:30.309Z,0.83
2018-05-16T18:29:00.223Z,1.20
2018-05-16T18:31:29.961Z,1.00
2018-05-16T18:34:00.765Z,1.00
2018-05-16T18:36:30.563Z,1.03
2018-05-16T18:39:00.365Z,0.97
2018-05-16T18:41:30.281Z,0.80
2018-05-16T18:44:00.037Z,0.80
2018-05-16T18:46:30.554Z,1.10
2018-05-16T18:49:00.367Z,0.90
2018-05-16T18:51:30.754Z,0.80
2018-05-16T18:54:02.533Z,1.50
2018-05-16T18:56:33.365Z,0.93
2018-05-16T18:59:03.706Z,1.10
2018-05-16T19:01:33.995Z,1.10
2018-05-16T19:04:04.492Z,0.90
2018-05-16T19:06:35.681Z,1.03
2018-05-16T19:09:06.763Z,0.83
2018-05-16T19:11:37.315Z,0.83
2018-05-16T19:14:07.173Z,1.13
2018-05-16T19:16:36.882Z,1.00
2018-05-16T19:19:06.575Z,1.00
2018-05-16T19:21:36.320Z,1.20
2018-05-16T19:24:06.407Z,1.30
2018-05-16T19:26:36.159Z,1.20
2018-05-16T19:29:05.897Z,0.90
2018-05-16T19:31:35.614Z,1.40
2018-05-16T19:34:06.005Z,1.30
2018-05-16T19:36:36.561Z,1.20
2018-05-16T19:39:06.663Z,1.10
2018-05-16T19:41:37.184Z,1.03
2018-05-16T19:44:06.959Z,1.03
2018-05-16T19:46:36.843Z,1.10
2018-05-16T19:49:06.588Z,1.23
2018-05-16T19:51:36.389Z,0.70
2018-05-16T19:54:06.229Z,0.90
2018-05-16T19:56:35.988Z,1.00
2018-05-16T19:59:05.812Z,1.40
2018-05-16T20:01:35.632Z,1.30
2018-05-16T20:04:05.331Z,1.20
2018-05-16T20:06:35.034Z,1.13
2018-05-16T20:09:06.213Z,1.40
2018-05-16T20:11:35.954Z,1.00
2018-05-16T20:14:05.675Z,1.23
2018-05-16T20:16:35.389Z,1.10
2018-05-16T20:19:05.195Z,1.20
2018-05-16T20:21:35.707Z,1.30
2018-05-16T20:24:05.581Z,1.30
2018-05-16T20:26:35.395Z,1.30
2018-05-16T20:29:05.161Z,1.40
2018-05-16T20:31:35.021Z,1.30
2018-05-16T20:34:04.812Z,1.20
2018-05-16T20:36:34.603Z,1.13
2018-05-16T20:39:04.623Z,1.10
2018-05-16T20:41:34.553Z,1.50
2018-05-16T20:44:04.375Z,1.17
2018-05-16T20:46:34.500Z,1.43
2018-05-16T20:49:04.315Z,1.10
2018-05-16T20:51:34.041Z,1.20
2018-05-16T20:54:03.894Z,1.43
2018-05-16T20:56:34.454Z,1.47
2018-05-16T20:59:04.232Z,1.10
2018-05-16T21:01:33.975Z,1.23
2018-05-16T21:04:03.776Z,1.30
2018-05-16T21:06:33.811Z,1.63
2018-05-16T21:09:03.780Z,1.40
2018-05-16T21:11:33.587Z,1.43
2018-05-16T21:14:03.314Z,1.13
2018-05-16T21:16:33.822Z,1.17
2018-05-16T21:19:03.618Z,1.23
2018-05-16T21:21:33.379Z,1.10
2018-05-16T21:24:04.438Z,1.37
2018-05-16T21:26:34.260Z,1.30
2018-05-16T21:29:04.780Z,1.47
2018-05-16T21:31:34.682Z,1.20
2018-05-16T21:34:04.510Z,1.10
2018-05-16T21:36:35.217Z,1.20
2018-05-16T21:39:05.259Z,1.20
2018-05-16T21:41:36.730Z,1.30
2018-05-16T21:44:06.556Z,1.50
2018-05-16T21:46:36.274Z,1.20
2018-05-16T21:49:05.956Z,1.47
2018-05-16T21:51:36.451Z,1.40
2018-05-16T21:54:07.202Z,1.50
2018-05-16T21:56:37.057Z,1.40
2018-05-16T21:59:06.829Z,1.80
2018-05-16T22:01:36.721Z,1.80
2018-05-16T22:04:06.477Z,3.20
2018-05-16T22:06:36.186Z,1.70
2018-05-16T22:09:07.234Z,1.60
2018-05-16T22:11:37.024Z,1.30
2018-05-16T22:14:07.004Z,1.60
2018-05-16T22:16:36.786Z,1.60
2018-05-16T22:19:06.549Z,1.60
2018-05-16T22:21:37.093Z,1.70
2018-05-16T22:24:07.624Z,1.50
2018-05-16T22:26:37.636Z,1.60
2018-05-16T22:29:08.233Z,1.50
2018-05-16T22:31:43.206Z,1.80
2018-05-16T22:34:18.382Z,2.00
2018-05-16T22:36:53.433Z,1.50
2018-05-16T22:39:28.484Z,1.53
2018-05-16T22:42:03.317Z,1.50
2018-05-16T22:44:34.792Z,1.50
2018-05-16T22:47:05.999Z,1.30
2018-05-16T22:49:35.773Z,1.50
2018-05-16T22:52:05.609Z,1.47
2018-05-16T22:54:35.410Z,1.57
2018-05-16T22:57:05.284Z,1.20
2018-05-16T22:59:35.880Z,2.20
2018-05-16T23:02:05.837Z,1.67
2018-05-16T23:04:36.411Z,1.70
2018-05-16T23:07:06.172Z,1.70
2018-05-16T23:09:37.130Z,1.50
2018-05-16T23:12:07.686Z,1.50
2018-05-16T23:14:37.630Z,1.70
2018-05-16T23:17:08.666Z,1.77
2018-05-16T23:19:39.522Z,1.60
2018-05-16T23:22:11.252Z,2.10
2018-05-16T23:24:42.130Z,1.57
2018-05-16T23:27:13.430Z,1.73
2018-05-16T23:29:44.227Z,1.43
2018-05-16T23:32:16.478Z,1.77
2018-05-16T23:34:46.786Z,1.60
2018-05-16T23:37:16.955Z,1.47
2018-05-16T23:39:47.448Z,1.40
2018-05-16T23:42:19.072Z,1.80
2018-05-16T23:44:49.130Z,1.57
2018-05-16T23:47:19.484Z,1.60
2018-05-16T23:49:50.460Z,2.00
2018-05-16T23:52:20.466Z,1.77
2018-05-16T23:54:50.659Z,1.60
2018-05-16T23:57:20.815Z,1.67
2018-05-16T23:59:51.149Z,1.67
